sensor_id;sensor_type;location;lat;lon;timestamp;pressure;altitude;pressure_sealevel;temperature;humidity
26043;BME280;13818;52.156;5.382;2023-06-22T00:01:20;101703.56;;;20.65;100.00
26043;BME280;13818;52.156;5.382;2023-06-22T00:03:47;101697.00;;;20.57;100.00
26043;BME280;13818;52.156;5.382;2023-06-22T00:06:14;101698.28;;;20.64;100.00
26043;BME280;13818;52.156;5.382;2023-06-22T00:08:40;101691.84;;;20.65;100.00
26043;BME280;13818;52.156;5.382;2023-06-22T00:11:07;101695.78;;;20.61;100.00
26043;BME280;13818;52.156;5.382;2023-06-22T00:13:35;101705.66;;;20.62;100.00
26043;BME280;13818;52.156;5.382;2023-06-22T00:16:01;101702.31;;;20.58;100.00
26043;BME280;13818;52.156;5.382;2023-06-22T00:18:28;101699.47;;;20.60;100.00
26043;BME280;13818;52.156;5.382;2023-06-22T00:20:55;101694.47;;;20.67;100.00
26043;BME280;13818;52.156;5.382;2023-06-22T00:23:24;101696.88;;;20.58;100.00
26043;BME280;13818;52.156;5.382;2023-06-22T00:25:51;101705.13;;;20.57;100.00
26043;BME280;13818;52.156;5.382;2023-06-22T00:28:17;101699.72;;;20.57;100.00
26043;BME280;13818;52.156;5.382;2023-06-22T00:30:45;101697.00;;;20.57;100.00
26043;BME280;13818;52.156;5.382;2023-06-22T00:33:12;101690.09;;;20.53;100.00
26043;BME280;13818;52.156;5.382;2023-06-22T00:35:39;101692.69;;;20.54;100.00
26043;BME280;13818;52.156;5.382;2023-06-22T00:38:06;101682.38;;;20.59;100.00
26043;BME280;13818;52.156;5.382;2023-06-22T00:40:33;101684.94;;;20.61;100.00
26043;BME280;13818;52.156;5.382;2023-06-22T00:43:00;101682.59;;;20.56;100.00
26043;BME280;13818;52.156;5.382;2023-06-22T00:45:26;101678.81;;;20.59;100.00
26043;BME280;13818;52.156;5.382;2023-06-22T00:47:56;101677.88;;;20.47;100.00
26043;BME280;13818;52.156;5.382;2023-06-22T00:50:24;101684.69;;;20.53;100.00
26043;BME280;13818;52.156;5.382;2023-06-22T00:52:53;101675.69;;;20.52;100.00
26043;BME280;13818;52.156;5.382;2023-06-22T00:55:22;101670.50;;;20.49;100.00
26043;BME280;13818;52.156;5.382;2023-06-22T00:57:49;101679.03;;;20.56;100.00
26043;BME280;13818;52.156;5.382;2023-06-22T01:00:15;101673.09;;;20.51;100.00
26043;BME280;13818;52.156;5.382;2023-06-22T01:02:44;101676.44;;;20.54;100.00
26043;BME280;13818;52.156;5.382;2023-06-22T01:05:14;101671.59;;;20.46;100.00
26043;BME280;13818;52.156;5.382;2023-06-22T01:07:46;101675.47;;;20.55;100.00
26043;BME280;13818;52.156;5.382;2023-06-22T01:10:21;101670.06;;;20.55;100.00
26043;BME280;13818;52.156;5.382;2023-06-22T01:12:52;101677.13;;;20.45;100.00
26043;BME280;13818;52.156;5.382;2023-06-22T01:15:23;101677.13;;;20.45;100.00
26043;BME280;13818;52.156;5.382;2023-06-22T01:17:52;101675.56;;;20.29;100.00
26043;BME280;13818;52.156;5.382;2023-06-22T01:20:21;101678.00;;;20.21;100.00
26043;BME280;13818;52.156;5.382;2023-06-22T01:23:01;101684.59;;;20.17;100.00
26043;BME280;13818;52.156;5.382;2023-06-22T01:25:32;101694.75;;;20.26;100.00
26043;BME280;13818;52.156;5.382;2023-06-22T01:28:08;101680.69;;;20.21;100.00
26043;BME280;13818;52.156;5.382;2023-06-22T01:30:41;101676.69;;;20.14;100.00
26043;BME280;13818;52.156;5.382;2023-06-22T01:33:10;101670.78;;;20.09;100.00
26043;BME280;13818;52.156;5.382;2023-06-22T01:35:38;101673.59;;;20.07;100.00
26043;BME280;13818;52.156;5.382;2023-06-22T01:38:05;101673.22;;;20.12;100.00
26043;BME280;13818;52.156;5.382;2023-06-22T01:40:32;101673.81;;;20.04;100.00
26043;BME280;13818;52.156;5.382;2023-06-22T01:43:00;101679.53;;;19.99;100.00
26043;BME280;13818;52.156;5.382;2023-06-22T01:45:27;101674.03;;;20.01;100.00
26043;BME280;13818;52.156;5.382;2023-06-22T01:47:56;101671.75;;;20.08;100.00
26043;BME280;13818;52.156;5.382;2023-06-22T01:50:22;101678.38;;;20.04;100.00
26043;BME280;13818;52.156;5.382;2023-06-22T01:52:49;101674.69;;;20.05;100.00
26043;BME280;13818;52.156;5.382;2023-06-22T01:55:15;101674.13;;;20.12;100.00
26043;BME280;13818;52.156;5.382;2023-06-22T01:57:42;101671.16;;;20.15;100.00
26043;BME280;13818;52.156;5.382;2023-06-22T02:00:12;101664.41;;;19.97;100.00
26043;BME280;13818;52.156;5.382;2023-06-22T02:02:43;101666.06;;;19.87;100.00
26043;BME280;13818;52.156;5.382;2023-06-22T02:05:17;101664.44;;;19.84;100.00
26043;BME280;13818;52.156;5.382;2023-06-22T02:07:48;101661.28;;;19.77;100.00
26043;BME280;13818;52.156;5.382;2023-06-22T02:10:17;101664.97;;;19.76;100.00
26043;BME280;13818;52.156;5.382;2023-06-22T02:12:46;101661.03;;;19.80;100.00
26043;BME280;13818;52.156;5.382;2023-06-22T02:15:15;101665.41;;;19.83;100.00
26043;BME280;13818;52.156;5.382;2023-06-22T02:17:42;101653.06;;;19.79;100.00
26043;BME280;13818;52.156;5.382;2023-06-22T02:20:12;101658.34;;;19.80;100.00
26043;BME280;13818;52.156;5.382;2023-06-22T02:22:40;101661.50;;;19.74;100.00
26043;BME280;13818;52.156;5.382;2023-06-22T02:25:07;101650.38;;;19.66;100.00
26043;BME280;13818;52.156;5.382;2023-06-22T02:27:33;101660.31;;;19.65;100.00
26043;BME280;13818;52.156;5.382;2023-06-22T02:30:00;101659.34;;;19.66;100.00
26043;BME280;13818;52.156;5.382;2023-06-22T02:32:27;101649.28;;;19.68;100.00
26043;BME280;13818;52.156;5.382;2023-06-22T02:34:53;101649.81;;;19.74;100.00
26043;BME280;13818;52.156;5.382;2023-06-22T02:37:19;101656.88;;;19.63;100.00
26043;BME280;13818;52.156;5.382;2023-06-22T02:39:47;101657.28;;;19.70;100.00
26043;BME280;13818;52.156;5.382;2023-06-22T02:42:14;101653.50;;;19.73;100.00
26043;BME280;13818;52.156;5.382;2023-06-22T02:44:40;101649.94;;;19.72;100.00
26043;BME280;13818;52.156;5.382;2023-06-22T02:47:07;101661.41;;;19.63;100.00
26043;BME280;13818;52.156;5.382;2023-06-22T02:49:34;101655.13;;;19.62;100.00
26043;BME280;13818;52.156;5.382;2023-06-22T02:52:00;101657.50;;;19.54;100.00
26043;BME280;13818;52.156;5.382;2023-06-22T02:54:27;101658.41;;;19.55;100.00
26043;BME280;13818;52.156;5.382;2023-06-22T02:56:54;101654.28;;;19.49;100.00
26043;BME280;13818;52.156;5.382;2023-06-22T02:59:21;101656.13;;;19.48;100.00
26043;BME280;13818;52.156;5.382;2023-06-22T03:01:49;101653.66;;;19.45;100.00
26043;BME280;13818;52.156;5.382;2023-06-22T03:04:15;101654.94;;;19.40;100.00
26043;BME280;13818;52.156;5.382;2023-06-22T03:06:42;101657.44;;;19.17;100.00
26043;BME280;13818;52.156;5.382;2023-06-22T03:09:08;101657.44;;;19.17;100.00
26043;BME280;13818;52.156;5.382;2023-06-22T03:11:36;101654.94;;;19.14;100.00
26043;BME280;13818;52.156;5.382;2023-06-22T03:14:03;101652.13;;;19.15;100.00
26043;BME280;13818;52.156;5.382;2023-06-22T03:16:30;101648.66;;;19.26;100.00
26043;BME280;13818;52.156;5.382;2023-06-22T03:18:56;101658.84;;;19.23;100.00
26043;BME280;13818;52.156;5.382;2023-06-22T03:21:23;101658.06;;;19.08;100.00
26043;BME280;13818;52.156;5.382;2023-06-22T03:23:49;101654.06;;;19.13;100.00
26043;BME280;13818;52.156;5.382;2023-06-22T03:26:16;101651.59;;;19.10;100.00
26043;BME280;13818;52.156;5.382;2023-06-22T03:28:43;101652.13;;;19.02;100.00
26043;BME280;13818;52.156;5.382;2023-06-22T03:31:11;101645.31;;;19.10;100.00
26043;BME280;13818;52.156;5.382;2023-06-22T03:33:37;101641.44;;;19.14;100.00
26043;BME280;13818;52.156;5.382;2023-06-22T03:36:04;101637.31;;;19.21;100.00
26043;BME280;13818;52.156;5.382;2023-06-22T03:38:30;101641.44;;;19.27;100.00
26043;BME280;13818;52.156;5.382;2023-06-22T03:40:57;101634.50;;;19.35;100.00
26043;BME280;13818;52.156;5.382;2023-06-22T03:43:23;101630.81;;;19.49;100.00
26043;BME280;13818;52.156;5.382;2023-06-22T03:45:50;101628.56;;;19.43;100.00
26043;BME280;13818;52.156;5.382;2023-06-22T03:48:18;101632.66;;;19.36;100.00
26043;BME280;13818;52.156;5.382;2023-06-22T03:50:44;101635.78;;;19.43;100.00
26043;BME280;13818;52.156;5.382;2023-06-22T03:53:11;101633.97;;;19.30;100.00
26043;BME280;13818;52.156;5.382;2023-06-22T03:55:42;101630.94;;;19.35;100.00
26043;BME280;13818;52.156;5.382;2023-06-22T03:58:14;101633.44;;;19.38;100.00
26043;BME280;13818;52.156;5.382;2023-06-22T04:00:40;101631.78;;;19.48;100.00
26043;BME280;13818;52.156;5.382;2023-06-22T04:03:07;101631.66;;;19.63;100.00
26043;BME280;13818;52.156;5.382;2023-06-22T04:05:34;101633.28;;;19.65;100.00
26043;BME280;13818;52.156;5.382;2023-06-22T04:08:01;101625.47;;;19.74;100.00
26043;BME280;13818;52.156;5.382;2023-06-22T04:10:27;101620.25;;;19.96;100.00
26043;BME280;13818;52.156;5.382;2023-06-22T04:12:54;101620.00;;;20.12;100.00
26043;BME280;13818;52.156;5.382;2023-06-22T04:15:20;101614.53;;;20.25;100.00
26043;BME280;13818;52.156;5.382;2023-06-22T04:17:47;101613.06;;;20.57;100.00
26043;BME280;13818;52.156;5.382;2023-06-22T04:20:13;101610.69;;;20.88;100.00
26043;BME280;13818;52.156;5.382;2023-06-22T04:22:41;101610.56;;;21.70;100.00
26043;BME280;13818;52.156;5.382;2023-06-22T04:25:08;101610.28;;;21.85;100.00
26043;BME280;13818;52.156;5.382;2023-06-22T04:27:34;101599.63;;;22.04;100.00
26043;BME280;13818;52.156;5.382;2023-06-22T04:30:02;101609.66;;;22.69;100.00
26043;BME280;13818;52.156;5.382;2023-06-22T04:32:29;101598.78;;;22.90;100.00
26043;BME280;13818;52.156;5.382;2023-06-22T04:34:56;101613.84;;;23.15;100.00
26043;BME280;13818;52.156;5.382;2023-06-22T04:37:22;101608.38;;;22.73;100.00
26043;BME280;13818;52.156;5.382;2023-06-22T04:39:51;101617.47;;;23.04;100.00
26043;BME280;13818;52.156;5.382;2023-06-22T04:42:18;101618.41;;;22.94;100.00
26043;BME280;13818;52.156;5.382;2023-06-22T04:44:44;101613.69;;;23.17;100.00
26043;BME280;13818;52.156;5.382;2023-06-22T04:47:11;101616.25;;;23.80;100.00
26043;BME280;13818;52.156;5.382;2023-06-22T04:49:38;101609.34;;;24.36;100.00
26043;BME280;13818;52.156;5.382;2023-06-22T04:52:07;101612.66;;;24.69;100.00
26043;BME280;13818;52.156;5.382;2023-06-22T04:54:35;101610.91;;;24.88;100.00
26043;BME280;13818;52.156;5.382;2023-06-22T04:57:05;101616.53;;;25.44;100.00
26043;BME280;13818;52.156;5.382;2023-06-22T04:59:35;101626.19;;;25.66;100.00
26043;BME280;13818;52.156;5.382;2023-06-22T05:02:04;101616.53;;;24.77;100.00
26043;BME280;13818;52.156;5.382;2023-06-22T05:04:31;101621.69;;;25.47;100.00
26043;BME280;13818;52.156;5.382;2023-06-22T05:06:58;101625.88;;;25.41;100.00
26043;BME280;13818;52.156;5.382;2023-06-22T05:09:25;101617.53;;;25.71;100.00
26043;BME280;13818;52.156;5.382;2023-06-22T05:11:52;101624.13;;;25.78;100.00
26043;BME280;13818;52.156;5.382;2023-06-22T05:14:20;101615.25;;;26.22;100.00
26043;BME280;13818;52.156;5.382;2023-06-22T05:16:46;101619.63;;;26.05;100.00
26043;BME280;13818;52.156;5.382;2023-06-22T05:19:13;101615.78;;;26.07;100.00
26043;BME280;13818;52.156;5.382;2023-06-22T05:21:39;101616.88;;;26.14;100.00
26043;BME280;13818;52.156;5.382;2023-06-22T05:24:06;101616.88;;;26.14;100.00
26043;BME280;13818;52.156;5.382;2023-06-22T05:26:34;101616.34;;;26.29;100.00
26043;BME280;13818;52.156;5.382;2023-06-22T05:29:01;101622.06;;;27.24;100.00
26043;BME280;13818;52.156;5.382;2023-06-22T05:31:30;101630.00;;;26.83;100.00
26043;BME280;13818;52.156;5.382;2023-06-22T05:33:56;101621.19;;;26.53;100.00
26043;BME280;13818;52.156;5.382;2023-06-22T05:36:23;101624.88;;;27.06;100.00
26043;BME280;13818;52.156;5.382;2023-06-22T05:38:51;101629.88;;;26.93;100.00
26043;BME280;13818;52.156;5.382;2023-06-22T05:41:19;101623.47;;;25.66;100.00
26043;BME280;13818;52.156;5.382;2023-06-22T05:43:45;101624.28;;;26.94;100.00
26043;BME280;13818;52.156;5.382;2023-06-22T05:46:12;101618.22;;;26.10;100.00
26043;BME280;13818;52.156;5.382;2023-06-22T05:48:40;101621.09;;;25.53;100.00
26043;BME280;13818;52.156;5.382;2023-06-22T05:51:06;101628.09;;;25.08;100.00
26043;BME280;13818;52.156;5.382;2023-06-22T05:53:33;101624.72;;;25.44;100.00
26043;BME280;13818;52.156;5.382;2023-06-22T05:55:59;101628.47;;;25.71;100.00
26043;BME280;13818;52.156;5.382;2023-06-22T05:58:26;101630.91;;;25.36;100.00
26043;BME280;13818;52.156;5.382;2023-06-22T06:00:52;101633.50;;;25.38;100.00
26043;BME280;13818;52.156;5.382;2023-06-22T06:03:19;101638.59;;;25.50;100.00
26043;BME280;13818;52.156;5.382;2023-06-22T06:05:47;101631.63;;;25.28;100.00
26043;BME280;13818;52.156;5.382;2023-06-22T06:08:13;101634.06;;;25.97;100.00
26043;BME280;13818;52.156;5.382;2023-06-22T06:10:40;101627.91;;;25.95;100.00
26043;BME280;13818;52.156;5.382;2023-06-22T06:13:07;101637.00;;;26.68;100.00
26043;BME280;13818;52.156;5.382;2023-06-22T06:15:34;101631.50;;;27.30;100.00
26043;BME280;13818;52.156;5.382;2023-06-22T06:18:01;101620.22;;;26.08;100.00
26043;BME280;13818;52.156;5.382;2023-06-22T06:20:30;101621.41;;;27.04;100.00
26043;BME280;13818;52.156;5.382;2023-06-22T06:22:58;101624.31;;;27.03;100.00
26043;BME280;13818;52.156;5.382;2023-06-22T06:25:25;101623.91;;;26.53;100.00
26043;BME280;13818;52.156;5.382;2023-06-22T06:27:51;101621.72;;;26.21;100.00
26043;BME280;13818;52.156;5.382;2023-06-22T06:30:20;101616.56;;;26.54;100.00
26043;BME280;13818;52.156;5.382;2023-06-22T06:32:47;101623.88;;;27.16;100.00
26043;BME280;13818;52.156;5.382;2023-06-22T06:35:14;101620.84;;;27.88;100.00
26043;BME280;13818;52.156;5.382;2023-06-22T06:37:43;101605.38;;;27.70;100.00
26043;BME280;13818;52.156;5.382;2023-06-22T06:40:13;101607.63;;;28.84;100.00
26043;BME280;13818;52.156;5.382;2023-06-22T06:42:41;101618.47;;;29.58;97.42
26043;BME280;13818;52.156;5.382;2023-06-22T06:45:10;101613.56;;;28.05;100.00
26043;BME280;13818;52.156;5.382;2023-06-22T06:47:37;101597.34;;;28.86;100.00
26043;BME280;13818;52.156;5.382;2023-06-22T06:50:04;101596.81;;;28.90;99.81
26043;BME280;13818;52.156;5.382;2023-06-22T06:52:31;101597.97;;;29.69;96.40
26043;BME280;13818;52.156;5.382;2023-06-22T06:54:58;101593.84;;;30.05;93.58
26043;BME280;13818;52.156;5.382;2023-06-22T06:57:25;101598.38;;;29.97;93.12
26043;BME280;13818;52.156;5.382;2023-06-22T06:59:54;101605.84;;;30.35;91.39
26043;BME280;13818;52.156;5.382;2023-06-22T07:02:20;101603.94;;;30.12;91.16
26043;BME280;13818;52.156;5.382;2023-06-22T07:04:47;101601.38;;;30.57;89.05
26043;BME280;13818;52.156;5.382;2023-06-22T07:07:14;101591.47;;;30.01;91.42
26043;BME280;13818;52.156;5.382;2023-06-22T07:09:40;101592.75;;;30.14;90.57
26043;BME280;13818;52.156;5.382;2023-06-22T07:12:07;101597.75;;;30.10;92.56
26043;BME280;13818;52.156;5.382;2023-06-22T07:14:35;101590.63;;;30.01;91.31
26043;BME280;13818;52.156;5.382;2023-06-22T07:17:02;101592.72;;;29.51;95.36
26043;BME280;13818;52.156;5.382;2023-06-22T07:19:29;101594.25;;;28.81;99.30
26043;BME280;13818;52.156;5.382;2023-06-22T07:21:56;101596.34;;;27.78;100.00
26043;BME280;13818;52.156;5.382;2023-06-22T07:24:24;101590.41;;;27.99;100.00
26043;BME280;13818;52.156;5.382;2023-06-22T07:26:51;101590.06;;;27.94;100.00
26043;BME280;13818;52.156;5.382;2023-06-22T07:29:18;101596.03;;;27.98;100.00
26043;BME280;13818;52.156;5.382;2023-06-22T07:31:47;101593.91;;;28.26;100.00
26043;BME280;13818;52.156;5.382;2023-06-22T07:34:15;101595.63;;;28.44;100.00
26043;BME280;13818;52.156;5.382;2023-06-22T07:36:41;101602.78;;;29.11;97.04
26043;BME280;13818;52.156;5.382;2023-06-22T07:39:07;101586.34;;;29.02;97.41
26043;BME280;13818;52.156;5.382;2023-06-22T07:41:34;101584.13;;;29.94;90.56
26043;BME280;13818;52.156;5.382;2023-06-22T07:44:02;101590.47;;;28.40;98.42
26043;BME280;13818;52.156;5.382;2023-06-22T07:46:28;101586.41;;;29.42;94.06
26043;BME280;13818;52.156;5.382;2023-06-22T07:48:56;101583.00;;;29.71;91.43
26043;BME280;13818;52.156;5.382;2023-06-22T07:51:23;101572.03;;;29.71;91.23
26043;BME280;13818;52.156;5.382;2023-06-22T07:53:50;101570.38;;;29.54;89.63
26043;BME280;13818;52.156;5.382;2023-06-22T07:56:16;101567.16;;;28.94;96.58
26043;BME280;13818;52.156;5.382;2023-06-22T07:58:44;101574.78;;;29.71;89.18
26043;BME280;13818;52.156;5.382;2023-06-22T08:01:11;101561.53;;;28.79;94.97
26043;BME280;13818;52.156;5.382;2023-06-22T08:03:38;101560.91;;;29.65;91.11
26043;BME280;13818;52.156;5.382;2023-06-22T08:06:07;101559.59;;;29.92;89.30
26043;BME280;13818;52.156;5.382;2023-06-22T08:08:34;101562.84;;;29.56;89.19
26043;BME280;13818;52.156;5.382;2023-06-22T08:11:01;101562.00;;;30.33;86.13
26043;BME280;13818;52.156;5.382;2023-06-22T08:13:27;101553.16;;;30.46;83.80
26043;BME280;13818;52.156;5.382;2023-06-22T08:15:54;101553.25;;;30.15;84.52
26043;BME280;13818;52.156;5.382;2023-06-22T08:18:20;101549.31;;;29.78;85.87
26043;BME280;13818;52.156;5.382;2023-06-22T08:20:47;101531.69;;;30.03;83.36
26043;BME280;13818;52.156;5.382;2023-06-22T08:23:15;101534.06;;;30.07;86.98
26043;BME280;13818;52.156;5.382;2023-06-22T08:25:42;101547.63;;;30.70;80.68
26043;BME280;13818;52.156;5.382;2023-06-22T08:28:08;101532.50;;;29.81;81.06
26043;BME280;13818;52.156;5.382;2023-06-22T08:30:34;101532.41;;;28.45;86.10
26043;BME280;13818;52.156;5.382;2023-06-22T08:33:01;101536.69;;;26.86;95.93
26043;BME280;13818;52.156;5.382;2023-06-22T08:35:28;101519.28;;;27.65;97.72
26043;BME280;13818;52.156;5.382;2023-06-22T08:37:54;101512.75;;;27.15;100.00
26043;BME280;13818;52.156;5.382;2023-06-22T08:40:23;101508.91;;;27.93;95.98
26043;BME280;13818;52.156;5.382;2023-06-22T08:42:49;101501.56;;;28.35;94.99
26043;BME280;13818;52.156;5.382;2023-06-22T08:45:16;101499.00;;;28.17;95.31
26043;BME280;13818;52.156;5.382;2023-06-22T08:47:43;101506.34;;;27.91;93.26
26043;BME280;13818;52.156;5.382;2023-06-22T08:50:10;101493.47;;;27.75;94.43
26043;BME280;13818;52.156;5.382;2023-06-22T08:52:37;101492.59;;;27.24;100.00
26043;BME280;13818;52.156;5.382;2023-06-22T08:55:07;101490.84;;;27.49;99.77
26043;BME280;13818;52.156;5.382;2023-06-22T08:57:35;101487.28;;;27.73;97.75
26043;BME280;13818;52.156;5.382;2023-06-22T09:00:05;101488.03;;;28.00;95.89
26043;BME280;13818;52.156;5.382;2023-06-22T09:02:33;101499.44;;;27.28;93.00
26043;BME280;13818;52.156;5.382;2023-06-22T09:05:03;101486.19;;;27.41;88.34
26043;BME280;13818;52.156;5.382;2023-06-22T09:07:30;101500.41;;;27.53;86.91
26043;BME280;13818;52.156;5.382;2023-06-22T09:09:56;101496.34;;;27.15;90.21
26043;BME280;13818;52.156;5.382;2023-06-22T09:12:23;101486.19;;;27.07;92.21
26043;BME280;13818;52.156;5.382;2023-06-22T09:14:53;101493.28;;;26.65;93.95
26043;BME280;13818;52.156;5.382;2023-06-22T09:17:20;101497.69;;;26.31;90.00
26043;BME280;13818;52.156;5.382;2023-06-22T09:19:46;101500.19;;;26.69;89.83
26043;BME280;13818;52.156;5.382;2023-06-22T09:22:13;101493.81;;;26.42;89.98
26043;BME280;13818;52.156;5.382;2023-06-22T09:24:41;101486.22;;;26.28;90.93
26043;BME280;13818;52.156;5.382;2023-06-22T09:27:08;101493.66;;;26.88;90.80
26043;BME280;13818;52.156;5.382;2023-06-22T09:29:34;101492.94;;;26.86;92.36
26043;BME280;13818;52.156;5.382;2023-06-22T09:32:02;101495.28;;;27.07;93.63
26043;BME280;13818;52.156;5.382;2023-06-22T09:34:29;101489.47;;;26.76;98.62
26043;BME280;13818;52.156;5.382;2023-06-22T09:36:56;101495.00;;;26.40;100.00
26043;BME280;13818;52.156;5.382;2023-06-22T09:39:25;101492.22;;;26.13;100.00
26043;BME280;13818;52.156;5.382;2023-06-22T09:41:52;101492.56;;;26.81;98.01
26043;BME280;13818;52.156;5.382;2023-06-22T09:44:18;101480.59;;;27.08;95.91
26043;BME280;13818;52.156;5.382;2023-06-22T09:46:45;101474.09;;;27.60;90.53
26043;BME280;13818;52.156;5.382;2023-06-22T09:49:12;101477.25;;;28.07;88.33
26043;BME280;13818;52.156;5.382;2023-06-22T09:51:39;101488.06;;;28.17;88.34
26043;BME280;13818;52.156;5.382;2023-06-22T09:54:05;101480.78;;;27.74;89.35
26043;BME280;13818;52.156;5.382;2023-06-22T09:56:32;101468.59;;;27.44;89.23
26043;BME280;13818;52.156;5.382;2023-06-22T09:58:58;101471.91;;;27.21;88.88
26043;BME280;13818;52.156;5.382;2023-06-22T10:01:25;101476.28;;;27.06;91.55
26043;BME280;13818;52.156;5.382;2023-06-22T10:03:52;101468.44;;;27.11;91.21
26043;BME280;13818;52.156;5.382;2023-06-22T10:06:22;101467.22;;;27.40;89.71
26043;BME280;13818;52.156;5.382;2023-06-22T10:08:50;101471.66;;;27.06;83.61
26043;BME280;13818;52.156;5.382;2023-06-22T10:11:16;101477.03;;;26.55;89.49
26043;BME280;13818;52.156;5.382;2023-06-22T10:13:43;101479.63;;;26.65;91.01
26043;BME280;13818;52.156;5.382;2023-06-22T10:16:10;101484.91;;;26.85;90.76
26043;BME280;13818;52.156;5.382;2023-06-22T10:18:36;101475.97;;;26.74;93.03
26043;BME280;13818;52.156;5.382;2023-06-22T10:21:03;101466.03;;;26.47;93.25
26043;BME280;13818;52.156;5.382;2023-06-22T10:23:31;101458.78;;;26.64;92.97
26043;BME280;13818;52.156;5.382;2023-06-22T10:25:57;101465.75;;;26.85;91.82
26043;BME280;13818;52.156;5.382;2023-06-22T10:28:24;101470.09;;;26.43;94.50
26043;BME280;13818;52.156;5.382;2023-06-22T10:30:50;101456.06;;;26.38;99.47
26043;BME280;13818;52.156;5.382;2023-06-22T10:33:17;101464.41;;;26.36;100.00
26043;BME280;13818;52.156;5.382;2023-06-22T10:35:44;101463.09;;;26.40;100.00
26043;BME280;13818;52.156;5.382;2023-06-22T10:38:10;101462.84;;;26.60;100.00
26043;BME280;13818;52.156;5.382;2023-06-22T10:40:38;101465.56;;;26.34;100.00
26043;BME280;13818;52.156;5.382;2023-06-22T10:43:05;101466.72;;;26.49;100.00
26043;BME280;13818;52.156;5.382;2023-06-22T10:45:32;101469.09;;;26.44;100.00
26043;BME280;13818;52.156;5.382;2023-06-22T10:47:58;101464.72;;;26.33;100.00
26043;BME280;13818;52.156;5.382;2023-06-22T10:50:25;101467.09;;;26.28;100.00
26043;BME280;13818;52.156;5.382;2023-06-22T10:52:51;101465.44;;;26.35;100.00
26043;BME280;13818;52.156;5.382;2023-06-22T10:55:18;101465.91;;;26.30;100.00
26043;BME280;13818;52.156;5.382;2023-06-22T10:57:46;101461.94;;;26.25;100.00
26043;BME280;13818;52.156;5.382;2023-06-22T11:00:14;101468.44;;;26.24;100.00
26043;BME280;13818;52.156;5.382;2023-06-22T11:02:41;101472.09;;;26.14;100.00
26043;BME280;13818;52.156;5.382;2023-06-22T11:05:08;101467.13;;;26.36;100.00
26043;BME280;13818;52.156;5.382;2023-06-22T11:07:34;101466.88;;;26.47;100.00
26043;BME280;13818;52.156;5.382;2023-06-22T11:10:01;101468.41;;;26.50;100.00
26043;BME280;13818;52.156;5.382;2023-06-22T11:12:27;101472.03;;;26.51;100.00
26043;BME280;13818;52.156;5.382;2023-06-22T11:14:55;101464.84;;;26.50;100.00
26043;BME280;13818;52.156;5.382;2023-06-22T11:17:22;101466.19;;;26.45;100.00
26043;BME280;13818;52.156;5.382;2023-06-22T11:19:49;101457.34;;;26.52;100.00
26043;BME280;13818;52.156;5.382;2023-06-22T11:22:15;101460.75;;;26.54;100.00
26043;BME280;13818;52.156;5.382;2023-06-22T11:24:42;101460.81;;;26.62;100.00
26043;BME280;13818;52.156;5.382;2023-06-22T11:27:08;101457.50;;;26.50;100.00
26043;BME280;13818;52.156;5.382;2023-06-22T11:29:34;101463.09;;;26.22;100.00
26043;BME280;13818;52.156;5.382;2023-06-22T11:32:03;101455.03;;;26.39;100.00
26043;BME280;13818;52.156;5.382;2023-06-22T11:34:29;101460.56;;;26.47;100.00
26043;BME280;13818;52.156;5.382;2023-06-22T11:36:56;101445.91;;;26.56;100.00
26043;BME280;13818;52.156;5.382;2023-06-22T11:39:22;101440.88;;;26.70;100.00
26043;BME280;13818;52.156;5.382;2023-06-22T11:41:49;101438.16;;;26.43;100.00
26043;BME280;13818;52.156;5.382;2023-06-22T11:44:15;101432.69;;;26.43;100.00
26043;BME280;13818;52.156;5.382;2023-06-22T11:46:41;101431.75;;;26.53;100.00
26043;BME280;13818;52.156;5.382;2023-06-22T11:49:09;101435.13;;;26.46;100.00
26043;BME280;13818;52.156;5.382;2023-06-22T11:51:36;101425.75;;;26.57;100.00
26043;BME280;13818;52.156;5.382;2023-06-22T11:54:02;101412.22;;;26.74;100.00
26043;BME280;13818;52.156;5.382;2023-06-22T11:56:29;101412.25;;;26.82;100.00
26043;BME280;13818;52.156;5.382;2023-06-22T11:58:55;101423.09;;;26.66;100.00
26043;BME280;13818;52.156;5.382;2023-06-22T12:01:21;101422.50;;;26.54;100.00
26043;BME280;13818;52.156;5.382;2023-06-22T12:03:48;101410.91;;;26.60;100.00
26043;BME280;13818;52.156;5.382;2023-06-22T12:06:16;101417.94;;;26.62;100.00
26043;BME280;13818;52.156;5.382;2023-06-22T12:08:42;101405.78;;;26.57;100.00
26043;BME280;13818;52.156;5.382;2023-06-22T12:11:09;101413.16;;;26.64;100.00
26043;BME280;13818;52.156;5.382;2023-06-22T12:13:35;101400.69;;;26.62;100.00
26043;BME280;13818;52.156;5.382;2023-06-22T12:16:02;101394.50;;;26.60;100.00
26043;BME280;13818;52.156;5.382;2023-06-22T12:18:28;101397.28;;;26.68;100.00
26043;BME280;13818;52.156;5.382;2023-06-22T12:20:55;101395.91;;;26.64;100.00
26043;BME280;13818;52.156;5.382;2023-06-22T12:23:22;101393.13;;;26.56;100.00
26043;BME280;13818;52.156;5.382;2023-06-22T12:25:49;101394.47;;;26.52;100.00
26043;BME280;13818;52.156;5.382;2023-06-22T12:28:15;101397.31;;;26.42;100.00
26043;BME280;13818;52.156;5.382;2023-06-22T12:30:43;101394.63;;;26.50;100.00
26043;BME280;13818;52.156;5.382;2023-06-22T12:33:10;101392.03;;;26.40;100.00
26043;BME280;13818;52.156;5.382;2023-06-22T12:35:36;101381.91;;;26.33;100.00
26043;BME280;13818;52.156;5.382;2023-06-22T12:38:04;101378.94;;;26.26;100.00
26043;BME280;13818;52.156;5.382;2023-06-22T12:40:33;101388.13;;;26.17;100.00
26043;BME280;13818;52.156;5.382;2023-06-22T12:42:59;101385.84;;;26.12;100.00